Time;durP1;ratioP1;P1;durP2;ratioP2;P2;SDS_P1;SDS_P2;PMS_P1;PMS_P2;Temp;Humidity;BMP_temperature;BMP_pressure;BME280_temperature;BME280_humidity;BME280_pressure;Samples;Min_cycle;Max_cycle;Signal;HPM_P1;HPM_P2
2023/08/25 00:01:03;;;;;;;10.33;7.40;;;16.50;99.90;15.90;100225;;;;571522;246;24077;-83
2023/08/25 00:03:30;;;;;;;9.17;5.80;;;16.50;99.90;15.90;100220;;;;571533;246;25134;-79
2023/08/25 00:05:58;;;;;;;10.13;6.87;;;16.50;99.90;15.90;100204;;;;571499;246;24132;-79
2023/08/25 00:08:26;;;;;;;9.10;6.83;;;16.60;99.90;16.00;100204;;;;571515;246;24087;-79
2023/08/25 00:10:54;;;;;;;10.47;7.30;;;16.60;99.90;16.00;100201;;;;573374;246;24146;-76
2023/08/25 00:13:22;;;;;;;6.87;4.97;;;16.60;99.90;16.00;100199;;;;571672;246;24085;-75
2023/08/25 00:15:53;;;;;;;8.17;6.43;;;16.70;99.90;16.10;100205;;;;571741;246;24119;-76
2023/08/25 00:18:18;;;;;;;8.17;5.57;;;16.70;99.90;16.10;100205;;;;572919;246;24127;-75
2023/08/25 00:20:45;;;;;;;7.03;5.63;;;16.70;99.90;16.20;100203;;;;571620;246;24077;-75
2023/08/25 00:23:17;;;;;;;8.00;5.53;;;16.80;99.90;16.20;100202;;;;571372;246;24102;-74
2023/08/25 00:25:46;;;;;;;8.30;5.73;;;16.80;99.90;16.20;100196;;;;573158;246;24141;-75
2023/08/25 00:28:13;;;;;;;7.87;5.50;;;16.70;99.90;16.20;100203;;;;572168;245;24145;-76
2023/08/25 00:30:41;;;;;;;5.47;4.87;;;16.80;99.90;16.20;100202;;;;573050;246;24124;-75
2023/08/25 00:33:13;;;;;;;6.37;5.43;;;16.80;99.90;16.30;100197;;;;572784;246;24068;-76
2023/08/25 00:35:37;;;;;;;6.60;5.10;;;16.90;99.90;16.30;100192;;;;571894;246;25148;-76
2023/08/25 00:38:06;;;;;;;7.27;5.03;;;17.00;99.90;16.40;100193;;;;572580;246;24090;-75
2023/08/25 00:40:38;;;;;;;6.90;4.60;;;17.00;99.90;16.40;100195;;;;571917;246;24088;-76
2023/08/25 00:43:05;;;;;;;6.70;4.50;;;17.00;99.90;16.50;100192;;;;571776;245;24097;-75
2023/08/25 00:45:33;;;;;;;4.97;4.40;;;17.10;99.90;16.50;100190;;;;572079;246;24071;-78
2023/08/25 00:48:02;;;;;;;8.73;4.93;;;17.10;99.90;16.60;100194;;;;573686;246;24085;-76
2023/08/25 00:50:33;;;;;;;5.33;4.83;;;17.20;99.90;16.60;100197;;;;571912;246;24123;-76
2023/08/25 00:52:57;;;;;;;5.20;4.67;;;17.20;99.90;16.60;100190;;;;582059;246;24130;-79
2023/08/25 00:55:25;;;;;;;5.97;4.43;;;17.20;99.90;16.60;100191;;;;582741;245;24091;-80
2023/08/25 00:57:53;;;;;;;7.13;4.33;;;17.20;99.90;16.60;100185;;;;571779;245;24154;-76
2023/08/25 01:00:22;;;;;;;9.00;4.33;;;17.30;99.90;16.60;100184;;;;571524;245;24089;-75
2023/08/25 01:02:50;;;;;;;5.33;4.53;;;17.30;99.90;16.70;100179;;;;573456;246;24196;-81
2023/08/25 01:05:19;;;;;;;11.37;4.37;;;17.30;99.90;16.70;100176;;;;571453;246;24081;-83
2023/08/25 01:07:46;;;;;;;6.10;4.00;;;17.30;99.90;16.70;100177;;;;571878;246;24135;-80
2023/08/25 01:10:15;;;;;;;4.33;3.90;;;17.30;99.90;16.70;100177;;;;571617;246;24065;-84
2023/08/25 01:12:51;;;;;;;8.43;4.63;;;17.30;99.90;16.70;100178;;;;572150;246;24077;-88
2023/08/25 01:15:32;;;;;;;6.77;4.00;;;17.30;99.90;16.70;100177;;;;571631;246;24091;-84
2023/08/25 01:18:06;;;;;;;5.47;4.00;;;17.30;99.90;16.70;100181;;;;573636;246;24125;-85
2023/08/25 01:20:30;;;;;;;6.82;5.07;;;17.30;99.90;16.70;100186;;;;568559;246;35490;-85
2023/08/25 01:23:28;;;;;;;5.30;4.70;;;17.30;99.90;16.70;100181;;;;574468;246;24105;-85
2023/08/25 01:25:56;;;;;;;4.87;4.47;;;17.30;99.90;16.70;100179;;;;577402;246;24116;-76
2023/08/25 01:28:24;;;;;;;4.77;4.13;;;17.30;99.90;16.70;100176;;;;572607;246;24060;-77
2023/08/25 01:30:55;;;;;;;5.97;4.57;;;17.30;99.90;16.70;100179;;;;574608;246;24150;-76
2023/08/25 01:33:20;;;;;;;8.87;5.10;;;17.30;99.90;16.70;100181;;;;573004;246;24142;-75
2023/08/25 01:36:03;;;;;;;9.60;3.97;;;17.30;99.90;16.70;100168;;;;573110;246;24078;-78
2023/08/25 01:38:33;;;;;;;5.37;4.03;;;17.30;99.90;16.70;100176;;;;574246;246;24080;-76
2023/08/25 01:41:40;;;;;;;4.50;4.07;;;17.30;99.90;16.70;100169;;;;574759;245;24185;-77
2023/08/25 01:44:05;;;;;;;6.53;3.97;;;17.30;99.90;16.70;100163;;;;572634;246;24097;-80
2023/08/25 01:46:33;;;;;;;5.70;3.47;;;17.30;99.90;16.70;100163;;;;572241;246;24099;-78
2023/08/25 01:49:01;;;;;;;5.67;3.83;;;17.30;99.90;16.70;100157;;;;573887;246;24079;-76
2023/08/25 01:51:29;;;;;;;5.77;3.80;;;17.30;99.90;16.70;100152;;;;573946;246;24149;-78
2023/08/25 01:53:57;;;;;;;9.97;3.67;;;17.30;99.90;16.70;100147;;;;571655;246;24085;-77
2023/08/25 01:56:26;;;;;;;4.57;3.90;;;17.30;99.90;16.70;100142;;;;572971;246;24088;-77
2023/08/25 01:58:54;;;;;;;5.70;3.70;;;17.30;99.90;16.70;100142;;;;572431;246;24096;-83
2023/08/25 02:01:22;;;;;;;4.20;3.80;;;17.30;99.90;16.70;100138;;;;571983;246;24117;-83
2023/08/25 02:03:51;;;;;;;8.03;4.47;;;17.30;99.90;16.70;100138;;;;572470;246;24123;-87
2023/08/25 02:06:21;;;;;;;5.00;4.03;;;17.30;99.90;16.70;100132;;;;572267;246;24085;-87
2023/08/25 02:08:49;;;;;;;8.00;4.80;;;17.30;99.90;16.70;100144;;;;572231;246;24096;-87
2023/08/25 02:11:14;;;;;;;14.90;5.40;;;17.30;99.90;16.70;100139;;;;582568;243;24153;-80
2023/08/25 02:13:42;;;;;;;9.10;4.80;;;17.30;99.90;16.70;100132;;;;572035;246;24098;-78
2023/08/25 02:16:12;;;;;;;7.73;5.00;;;17.30;99.90;16.70;100129;;;;572567;246;24076;-79
2023/08/25 02:18:38;;;;;;;8.10;4.13;;;17.30;99.90;16.70;100120;;;;582370;246;24102;-83
2023/08/25 02:21:06;;;;;;;8.47;4.70;;;17.30;99.90;16.70;100124;;;;571995;246;24138;-76
2023/08/25 02:23:34;;;;;;;5.50;4.40;;;17.30;99.90;16.70;100120;;;;572161;246;24093;-87
2023/08/25 02:26:02;;;;;;;5.83;4.17;;;17.30;99.90;16.70;100117;;;;572635;246;24100;-81
2023/08/25 02:28:30;;;;;;;7.47;4.07;;;17.30;99.90;16.70;100115;;;;572164;246;24115;-80
2023/08/25 02:30:58;;;;;;;7.63;4.30;;;17.30;99.90;16.70;100115;;;;572136;246;24067;-86
2023/08/25 02:33:26;;;;;;;8.93;4.80;;;17.30;99.90;16.70;100106;;;;572858;246;24076;-83
2023/08/25 02:35:54;;;;;;;6.60;4.60;;;17.30;99.90;16.70;100108;;;;573018;246;24136;-84
2023/08/25 02:38:22;;;;;;;8.00;5.17;;;17.30;99.90;16.70;100100;;;;573012;246;24182;-78
2023/08/25 02:40:50;;;;;;;10.07;5.17;;;17.30;99.90;16.70;100106;;;;572343;246;24072;-77
2023/08/25 02:43:18;;;;;;;10.90;5.40;;;17.30;99.90;16.70;100099;;;;571840;246;24099;-76
2023/08/25 02:45:46;;;;;;;7.23;4.87;;;17.30;99.90;16.70;100097;;;;571968;246;24156;-79
2023/08/25 02:48:14;;;;;;;8.17;4.80;;;17.30;99.90;16.70;100092;;;;572049;246;24066;-84
2023/08/25 02:50:42;;;;;;;6.37;4.60;;;17.30;99.90;16.70;100093;;;;582977;244;24110;-82
2023/08/25 02:53:10;;;;;;;6.00;5.40;;;17.30;99.90;16.70;100093;;;;573330;246;24174;-81
2023/08/25 02:55:38;;;;;;;7.60;5.23;;;17.30;99.90;16.70;100082;;;;584450;242;24152;-87
2023/08/25 02:58:06;;;;;;;7.70;5.43;;;17.30;99.90;16.70;100084;;;;572792;246;24105;-87
2023/08/25 03:00:34;;;;;;;5.50;5.00;;;17.30;99.90;16.70;100083;;;;572941;246;24093;-86
2023/08/25 03:03:02;;;;;;;6.57;5.63;;;17.20;99.90;16.60;100089;;;;572773;246;24169;-86
2023/08/25 03:05:32;;;;;;;5.90;5.40;;;17.20;99.90;16.60;100084;;;;572504;246;24079;-76
2023/08/25 03:07:59;;;;;;;10.20;5.60;;;17.20;99.90;16.60;100085;;;;582798;246;24172;-76
2023/08/25 03:10:26;;;;;;;5.93;5.43;;;17.20;99.90;16.60;100078;;;;572325;246;24068;-76
2023/08/25 03:12:55;;;;;;;7.80;5.87;;;17.20;99.90;16.60;100076;;;;572134;246;24094;-77
2023/08/25 03:15:23;;;;;;;8.03;5.93;;;17.20;99.90;16.60;100068;;;;572166;246;24142;-77
2023/08/25 03:17:51;;;;;;;9.77;5.93;;;17.20;99.90;16.60;100067;;;;572174;246;24081;-77
2023/08/25 03:20:19;;;;;;;7.40;5.73;;;17.20;99.90;16.60;100054;;;;572618;246;24072;-84
2023/08/25 03:22:47;;;;;;;7.43;6.27;;;17.20;99.90;16.60;100057;;;;572820;246;24088;-80
2023/08/25 03:25:15;;;;;;;5.37;4.73;;;17.10;99.90;16.60;100059;;;;572757;246;24068;-79
2023/08/25 03:27:48;;;;;;;6.53;5.87;;;17.10;99.90;16.60;100051;;;;572619;246;24098;-80
2023/08/25 03:30:16;;;;;;;8.00;5.47;;;17.10;99.90;16.50;100051;;;;573827;246;24115;-82
2023/08/25 03:32:41;;;;;;;6.37;5.83;;;17.10;99.90;16.50;100057;;;;572816;246;24143;-74
2023/08/25 03:35:09;;;;;;;6.10;5.03;;;17.10;99.90;16.50;100049;;;;572859;246;24074;-81
2023/08/25 03:37:37;;;;;;;7.63;5.50;;;17.10;99.90;16.50;100059;;;;572732;246;24083;-76
2023/08/25 03:40:06;;;;;;;5.83;5.33;;;17.10;99.90;16.50;100043;;;;571875;246;24068;-76
2023/08/25 03:42:34;;;;;;;6.80;5.27;;;17.10;99.90;16.50;100049;;;;572050;246;24081;-78
2023/08/25 03:45:02;;;;;;;7.40;5.20;;;17.10;99.90;16.50;100048;;;;572344;246;24080;-78
2023/08/25 03:47:30;;;;;;;8.47;5.03;;;17.10;99.90;16.50;100051;;;;572274;246;24103;-79
2023/08/25 03:49:58;;;;;;;7.53;5.30;;;17.10;99.90;16.60;100050;;;;572470;246;24101;-80
2023/08/25 03:52:26;;;;;;;9.57;5.30;;;17.10;99.90;16.60;100042;;;;572438;246;24098;-81
2023/08/25 03:54:54;;;;;;;11.30;5.10;;;17.10;99.90;16.60;100038;;;;572663;246;24110;-78
2023/08/25 03:57:21;;;;;;;15.20;5.53;;;17.20;99.90;16.70;100044;;;;571769;246;24081;-78
2023/08/25 03:59:49;;;;;;;12.33;5.17;;;17.20;99.90;16.70;100033;;;;571480;246;24095;-77
2023/08/25 04:02:17;;;;;;;9.63;5.07;;;17.30;99.90;16.80;100030;;;;572023;244;24143;-77
2023/08/25 04:04:45;;;;;;;21.40;5.30;;;17.40;99.90;16.80;100032;;;;572892;246;24073;-78
2023/08/25 04:07:15;;;;;;;10.27;4.67;;;17.50;99.90;16.90;100041;;;;572701;246;24143;-79
2023/08/25 04:09:43;;;;;;;8.20;4.90;;;17.50;99.90;17.00;100040;;;;572407;246;24160;-76
2023/08/25 04:12:11;;;;;;;7.53;4.27;;;17.50;99.90;17.00;100036;;;;572350;246;24187;-76
2023/08/25 04:14:40;;;;;;;5.03;4.53;;;17.60;99.90;17.10;100042;;;;572105;246;24077;-80
2023/08/25 04:17:08;;;;;;;5.23;4.77;;;17.70;99.90;17.10;100037;;;;572162;246;24096;-76
2023/08/25 04:19:35;;;;;;;6.60;5.17;;;17.70;99.90;17.20;100042;;;;572162;246;25151;-77
2023/08/25 04:22:03;;;;;;;9.80;5.60;;;17.80;99.90;17.20;100038;;;;571759;246;24096;-76
2023/08/25 04:24:31;;;;;;;5.27;4.87;;;17.80;99.90;17.20;100039;;;;571995;246;24077;-76
2023/08/25 04:27:02;;;;;;;5.43;4.70;;;17.80;99.90;17.30;100036;;;;572161;246;24084;-76
2023/08/25 04:29:27;;;;;;;8.40;5.47;;;17.80;99.90;17.30;100043;;;;573707;246;24084;-77
2023/08/25 04:31:55;;;;;;;6.47;5.20;;;17.80;99.90;17.30;100033;;;;572354;246;24091;-75
2023/08/25 04:34:23;;;;;;;7.63;4.80;;;17.90;99.90;17.30;100032;;;;572144;246;24089;-76
2023/08/25 04:36:51;;;;;;;7.63;5.20;;;17.90;99.90;17.40;100028;;;;572178;246;24154;-76
2023/08/25 04:39:19;;;;;;;5.30;4.80;;;17.90;99.90;17.40;100021;;;;572027;242;24069;-76
2023/08/25 04:41:47;;;;;;;7.63;5.03;;;18.00;99.90;17.40;100031;;;;571912;246;24135;-76
2023/08/25 04:44:15;;;;;;;5.60;5.10;;;18.00;99.90;17.50;100024;;;;571833;246;24101;-76
2023/08/25 04:46:42;;;;;;;4.87;4.47;;;18.00;99.90;17.50;100008;;;;571435;246;24084;-77
2023/08/25 04:49:10;;;;;;;7.20;5.10;;;18.00;99.90;17.50;100008;;;;571580;246;24098;-75
2023/08/25 04:51:39;;;;;;;6.20;4.70;;;18.00;99.90;17.50;100003;;;;571462;246;24077;-75
2023/08/25 04:54:06;;;;;;;5.30;4.80;;;18.10;99.90;17.50;100010;;;;571564;246;24140;-77
2023/08/25 04:56:35;;;;;;;6.33;5.00;;;18.10;99.90;17.50;100005;;;;571534;246;24112;-77
2023/08/25 04:59:03;;;;;;;8.73;5.33;;;18.10;99.90;17.60;100007;;;;571564;246;24112;-77
2023/08/25 05:01:31;;;;;;;5.80;5.20;;;18.10;99.90;17.60;100011;;;;571905;246;24085;-79
2023/08/25 05:03:59;;;;;;;6.73;4.73;;;18.10;99.90;17.60;100009;;;;571867;246;24088;-76
2023/08/25 05:06:27;;;;;;;7.47;5.50;;;18.20;99.90;17.60;100008;;;;572018;246;24127;-77
2023/08/25 05:08:56;;;;;;;10.07;5.97;;;18.10;99.90;17.50;100008;;;;572007;246;24103;-78
2023/08/25 05:11:23;;;;;;;8.33;5.87;;;18.10;99.90;17.50;100008;;;;571849;246;24090;-76
2023/08/25 05:13:52;;;;;;;7.63;5.20;;;18.10;99.90;17.50;100011;;;;572396;244;24098;-76
2023/08/25 05:16:19;;;;;;;12.03;5.63;;;18.10;99.90;17.50;100006;;;;573641;246;24080;-82
2023/08/25 05:18:48;;;;;;;9.27;5.83;;;18.00;99.90;17.50;99995;;;;572988;246;24102;-79
2023/08/25 05:21:16;;;;;;;8.10;5.40;;;18.00;99.90;17.40;100004;;;;582717;245;24119;-76
2023/08/25 05:23:48;;;;;;;5.43;4.93;;;18.00;99.90;17.50;99990;;;;572430;246;24087;-78
2023/08/25 05:26:16;;;;;;;6.30;4.70;;;18.00;99.90;17.50;99982;;;;573931;246;24107;-77
2023/08/25 05:28:44;;;;;;;8.40;5.50;;;18.00;99.90;17.40;99989;;;;573551;246;24151;-78
2023/08/25 05:31:12;;;;;;;10.20;5.63;;;18.00;99.90;17.50;99981;;;;583063;245;24064;-79
2023/08/25 05:33:40;;;;;;;9.20;6.07;;;18.00;99.90;17.50;99977;;;;572236;246;24080;-80
2023/08/25 05:36:08;;;;;;;7.60;5.87;;;18.00;99.90;17.50;99983;;;;582712;245;24061;-77
2023/08/25 05:38:36;;;;;;;6.80;4.97;;;18.00;99.90;17.50;99981;;;;582671;245;24073;-77
2023/08/25 05:41:04;;;;;;;10.90;5.33;;;18.10;99.90;17.50;99976;;;;582654;245;24111;-75
2023/08/25 05:43:32;;;;;;;7.73;5.67;;;18.10;99.90;17.60;99971;;;;572225;246;24148;-77
2023/08/25 05:46:01;;;;;;;9.87;5.93;;;18.10;99.90;17.60;99965;;;;582577;245;24069;-76
2023/08/25 05:48:29;;;;;;;9.17;6.00;;;18.20;99.90;17.70;99956;;;;582492;242;23134;-80
2023/08/25 05:50:56;;;;;;;7.30;6.40;;;18.20;99.90;17.70;99950;;;;583460;245;24162;-82
2023/08/25 05:53:24;;;;;;;7.53;6.07;;;18.30;99.90;17.80;99952;;;;583412;242;24173;-76
2023/08/25 05:55:53;;;;;;;7.23;6.07;;;18.40;99.90;17.90;99953;;;;583350;243;24044;-84
2023/08/25 05:58:20;;;;;;;9.67;6.57;;;18.40;99.90;18.00;99945;;;;582165;246;24100;-76
2023/08/25 06:00:48;;;;;;;13.63;6.50;;;18.60;99.90;18.10;99937;;;;582097;246;24084;-76
2023/08/25 06:03:16;;;;;;;8.07;6.13;;;18.70;99.90;18.30;99941;;;;573597;246;25160;-84
2023/08/25 06:05:48;;;;;;;8.40;5.83;;;18.80;99.90;18.40;99936;;;;582676;246;24099;-83
2023/08/25 06:08:15;;;;;;;10.13;5.83;;;19.00;99.90;18.70;99948;;;;573968;246;24076;-86
2023/08/25 06:10:46;;;;;;;7.90;6.03;;;19.20;99.90;18.90;99939;;;;572000;246;24146;-82
2023/08/25 06:13:11;;;;;;;6.67;5.97;;;19.40;99.90;19.10;99940;;;;573459;246;23120;-82
2023/08/25 06:15:42;;;;;;;12.23;6.20;;;19.60;99.90;19.20;99935;;;;582368;246;24084;-78
2023/08/25 06:18:06;;;;;;;9.03;6.30;;;19.80;99.90;19.40;99928;;;;581741;246;24128;-78
2023/08/25 06:20:35;;;;;;;7.13;5.50;;;20.00;99.90;19.60;99932;;;;581917;246;24114;-76
2023/08/25 06:23:03;;;;;;;7.67;6.00;;;20.40;99.90;19.90;99927;;;;582160;246;24102;-82
2023/08/25 06:25:34;;;;;;;8.30;5.90;;;20.40;99.90;20.10;99930;;;;573763;244;24080;-81
2023/08/25 06:28:02;;;;;;;7.73;5.70;;;20.70;99.90;20.30;99930;;;;574688;246;24109;-76
2023/08/25 06:30:27;;;;;;;7.40;5.43;;;20.80;99.90;20.30;99929;;;;573749;246;24107;-76
2023/08/25 06:32:55;;;;;;;6.07;5.43;;;21.00;99.90;20.40;99933;;;;577137;246;25147;-80
2023/08/25 06:35:24;;;;;;;9.20;5.70;;;21.10;99.90;20.50;99933;;;;583118;245;24077;-78
2023/08/25 06:37:53;;;;;;;15.47;5.90;;;21.10;99.90;20.50;99926;;;;582911;242;24111;-82
2023/08/25 06:40:22;;;;;;;7.73;5.50;;;21.20;99.90;20.60;99920;;;;572494;246;24134;-79
2023/08/25 06:42:49;;;;;;;6.07;5.43;;;21.20;99.90;20.70;99924;;;;582762;246;24085;-77
2023/08/25 06:45:17;;;;;;;10.20;5.50;;;21.30;99.90;20.80;99919;;;;582556;245;24091;-77
2023/08/25 06:47:46;;;;;;;12.50;5.53;;;21.40;99.90;20.90;99918;;;;572106;246;24136;-77
2023/08/25 06:50:14;;;;;;;10.57;4.80;;;21.50;99.90;21.10;99912;;;;571732;246;24103;-78
2023/08/25 06:52:42;;;;;;;7.30;5.00;;;21.60;99.90;21.20;99916;;;;572041;242;24124;-80
2023/08/25 06:55:11;;;;;;;5.50;5.00;;;21.90;99.90;21.30;99911;;;;582266;245;24163;-79
2023/08/25 06:57:39;;;;;;;6.43;5.10;;;21.80;99.90;21.50;99913;;;;582525;245;24092;-81
2023/08/25 07:00:07;;;;;;;12.43;5.13;;;22.00;99.90;21.70;99903;;;;582536;241;24039;-78
2023/08/25 07:02:36;;;;;;;6.37;5.57;;;22.20;99.90;22.00;99897;;;;584721;241;24031;-80
2023/08/25 07:05:04;;;;;;;7.50;4.80;;;22.50;99.90;22.40;99898;;;;595244;241;24015;-82
2023/08/25 07:07:31;;;;;;;7.47;5.83;;;22.90;99.90;22.80;99905;;;;595230;241;24040;-82
2023/08/25 07:09:59;;;;;;;8.80;5.33;;;23.30;99.90;23.10;99891;;;;595204;241;24041;-81
2023/08/25 07:12:27;;;;;;;7.20;5.37;;;23.70;99.90;23.40;99893;;;;595166;238;23083;-78
2023/08/25 07:14:55;;;;;;;9.10;5.10;;;24.00;99.90;23.60;99893;;;;595003;241;24019;-79
2023/08/25 07:17:23;;;;;;;6.67;5.17;;;24.30;99.90;23.80;99889;;;;585410;242;23090;-79
2023/08/25 07:19:51;;;;;;;7.43;4.77;;;24.30;99.90;23.80;99887;;;;573182;246;23075;-77
2023/08/25 07:22:19;;;;;;;8.53;4.87;;;24.40;99.90;23.80;99891;;;;573669;246;23078;-75
2023/08/25 07:24:50;;;;;;;5.90;5.17;;;24.40;99.90;23.70;99899;;;;573511;246;23094;-76
2023/08/25 07:27:15;;;;;;;10.30;5.55;;;24.30;99.90;23.70;99892;;;;567980;246;35136;-81
2023/08/25 07:29:43;;;;;;;8.47;5.00;;;24.20;99.90;24.00;99896;;;;573576;246;23131;-77
2023/08/25 07:32:11;;;;;;;7.03;5.50;;;24.70;99.90;24.30;99899;;;;573061;246;23065;-77
2023/08/25 07:34:39;;;;;;;8.27;4.60;;;24.70;99.90;24.70;99893;;;;573507;246;24139;-78
2023/08/25 07:37:07;;;;;;;10.47;4.47;;;25.10;99.90;25.10;99892;;;;573710;244;23098;-80
2023/08/25 07:39:35;;;;;;;13.47;5.40;;;25.50;99.90;25.70;99892;;;;575112;246;23072;-78
2023/08/25 07:42:03;;;;;;;17.47;5.33;;;26.10;99.90;26.20;99889;;;;574414;246;23082;-82
2023/08/25 07:44:31;;;;;;;16.05;6.32;;;26.60;99.90;26.80;99896;;;;569265;246;46078;-82
2023/08/25 07:47:00;;;;;;;7.17;5.20;;;27.80;99.90;27.40;99905;;;;574197;246;23056;-80
2023/08/25 07:49:28;;;;;;;11.60;5.10;;;27.70;99.90;27.80;99896;;;;574001;246;23095;-80
2023/08/25 07:51:55;;;;;;;10.52;5.03;;;28.30;99.90;28.50;99901;;;;573872;246;24094;-80
2023/08/25 07:54:23;;;;;;;9.35;5.32;;;28.90;99.90;28.50;99898;;;;580129;242;23028;-83
2023/08/25 07:56:51;;;;;;;9.20;5.43;;;29.00;99.90;28.10;99904;;;;589779;241;24086;-80
2023/08/25 07:59:23;;;;;;;6.12;4.82;;;28.80;99.90;27.60;99905;;;;590640;241;23057;-83
2023/08/25 08:01:50;;;;;;;8.77;5.68;;;27.80;99.90;27.00;99904;;;;584676;236;23084;-83
2023/08/25 08:04:16;;;;;;;13.90;5.93;;;27.80;99.90;26.40;99896;;;;594185;241;23041;-79
2023/08/25 08:06:44;;;;;;;9.73;5.37;;;27.30;99.90;25.90;99899;;;;585215;241;23036;-80
2023/08/25 08:09:12;;;;;;;8.07;5.57;;;26.80;99.90;25.50;99899;;;;591099;241;23094;-78
2023/08/25 08:11:39;;;;;;;7.77;4.97;;;26.30;99.90;25.20;99899;;;;590967;241;23101;-79
2023/08/25 08:14:07;;;;;;;7.57;5.00;;;25.80;99.90;24.90;99902;;;;590756;241;24054;-79
2023/08/25 08:16:36;;;;;;;7.40;5.13;;;25.20;99.90;24.70;99904;;;;585098;241;23017;-80
2023/08/25 08:19:05;;;;;;;7.77;4.27;;;25.20;99.90;24.40;99909;;;;590721;241;23029;-78
2023/08/25 08:21:32;;;;;;;9.57;4.93;;;24.90;99.90;24.30;99912;;;;593517;236;24106;-83
2023/08/25 08:24:00;;;;;;;8.47;5.20;;;24.80;99.90;24.30;99906;;;;584482;241;23010;-79
2023/08/25 08:26:29;;;;;;;5.60;4.87;;;24.70;99.90;24.20;99905;;;;590527;241;24040;-84
2023/08/25 08:28:56;;;;;;;8.30;5.10;;;24.70;99.90;24.10;99907;;;;590081;241;23067;-82
2023/08/25 08:31:24;;;;;;;11.83;6.17;;;24.40;99.90;23.90;99901;;;;590135;241;23022;-81
2023/08/25 08:33:53;;;;;;;6.10;4.60;;;24.40;99.90;23.80;99906;;;;584384;241;24005;-82
2023/08/25 08:36:20;;;;;;;7.20;5.20;;;24.20;99.90;23.60;99908;;;;590368;241;23011;-83
2023/08/25 08:38:48;;;;;;;9.27;5.30;;;24.00;99.90;23.40;99900;;;;590601;241;23031;-81
2023/08/25 08:41:16;;;;;;;8.13;5.23;;;23.90;99.90;23.40;99896;;;;590635;241;24009;-84
2023/08/25 08:43:44;;;;;;;6.50;5.00;;;23.90;99.90;23.50;99906;;;;593817;236;23036;-83
2023/08/25 08:46:12;;;;;;;11.23;5.37;;;24.00;99.90;23.50;99903;;;;593664;241;23038;-81
2023/08/25 08:48:42;;;;;;;10.10;4.97;;;24.00;99.90;23.40;99905;;;;584827;239;23063;-81
2023/08/25 08:51:11;;;;;;;7.60;4.70;;;23.90;99.90;23.50;99898;;;;595091;241;24018;-82
2023/08/25 08:53:35;;;;;;;8.73;5.20;;;23.90;99.90;23.30;99896;;;;585174;241;24026;-82
2023/08/25 08:56:06;;;;;;;7.90;4.80;;;23.80;99.90;23.10;99895;;;;585302;241;24015;-84
2023/08/25 08:58:32;;;;;;;7.60;4.43;;;23.50;99.90;22.90;99895;;;;591502;241;24046;-77
2023/08/25 09:01:00;;;;;;;11.07;5.13;;;23.40;99.90;22.90;99894;;;;590478;241;24045;-81
2023/08/25 09:03:28;;;;;;;14.10;5.57;;;23.40;99.90;22.80;99887;;;;584806;241;24000;-80
2023/08/25 09:05:57;;;;;;;6.17;5.60;;;23.30;99.90;22.70;99893;;;;593544;236;24008;-80
2023/08/25 09:08:27;;;;;;;5.63;5.07;;;23.20;99.90;22.60;99890;;;;593979;241;23060;-80
2023/08/25 09:10:52;;;;;;;9.27;5.40;;;23.10;99.90;22.50;99895;;;;584600;241;24034;-78
2023/08/25 09:13:24;;;;;;;5.67;5.00;;;23.00;99.90;22.50;99890;;;;590867;241;24168;-80
2023/08/25 09:15:49;;;;;;;7.57;5.13;;;23.00;99.90;22.60;99890;;;;584652;241;24027;-80
2023/08/25 09:18:16;;;;;;;6.23;5.63;;;23.10;99.90;22.80;99888;;;;584566;241;24073;-79
2023/08/25 09:20:44;;;;;;;8.67;5.23;;;23.20;99.90;22.90;99901;;;;590882;241;23021;-82
2023/08/25 09:23:12;;;;;;;8.70;5.00;;;23.30;99.90;22.90;99894;;;;593778;236;24048;-77
2023/08/25 09:25:46;;;;;;;7.17;6.10;;;23.40;99.90;22.80;99894;;;;590556;241;23080;-77
2023/08/25 09:28:11;;;;;;;6.20;5.23;;;23.30;99.90;22.90;99890;;;;584223;241;23037;-76
2023/08/25 09:30:39;;;;;;;5.63;4.77;;;23.40;99.90;23.10;99887;;;;590100;241;23025;-77
2023/08/25 09:33:13;;;;;;;6.10;4.80;;;23.60;99.90;23.10;99882;;;;584076;241;23035;-79
2023/08/25 09:35:38;;;;;;;7.73;5.23;;;23.60;99.90;23.30;99880;;;;584064;240;23033;-78
2023/08/25 09:38:09;;;;;;;10.20;4.90;;;23.80;99.90;23.40;99874;;;;589979;242;23082;-78
2023/08/25 09:40:37;;;;;;;8.40;5.20;;;23.80;99.90;23.50;99871;;;;581217;244;23085;-77
2023/08/25 09:43:05;;;;;;;21.13;5.60;;;24.00;99.90;23.80;99871;;;;582436;242;24106;-80
2023/08/25 09:45:37;;;;;;;8.47;4.73;;;24.30;99.90;23.90;99868;;;;596929;236;23021;-83
2023/08/25 09:48:10;;;;;;;13.17;4.90;;;24.30;99.90;24.00;99870;;;;580851;240;23061;-76
2023/08/25 09:50:40;;;;;;;8.40;5.57;;;24.40;99.90;23.90;99876;;;;584465;240;23058;-80
2023/08/25 09:53:07;;;;;;;8.70;5.60;;;24.40;99.90;24.00;99870;;;;593492;232;23101;-82
2023/08/25 09:55:36;;;;;;;7.27;4.90;;;24.40;99.90;24.00;99869;;;;593786;236;23050;-77
2023/08/25 09:58:06;;;;;;;11.10;5.43;;;24.50;99.90;24.00;99866;;;;593858;236;23075;-78
2023/08/25 10:00:37;;;;;;;13.00;5.53;;;24.50;99.90;24.20;99872;;;;585438;241;23138;-80
2023/08/25 10:03:09;;;;;;;8.50;5.50;;;24.90;99.90;24.40;99875;;;;591878;236;23084;-84
2023/08/25 10:05:41;;;;;;;6.10;4.70;;;24.80;99.90;24.70;99875;;;;575444;246;23108;-83
2023/08/25 10:08:10;;;;;;;8.27;5.10;;;25.10;99.90;24.80;99870;;;;573074;246;23182;-81
2023/08/25 10:10:41;;;;;;;10.63;5.37;;;25.30;99.90;24.80;99879;;;;562833;251;23194;-81
2023/08/25 10:13:06;;;;;;;9.50;5.23;;;25.30;99.90;24.70;99876;;;;575883;246;23100;-84
2023/08/25 10:15:34;;;;;;;9.63;5.33;;;25.20;99.90;24.60;99875;;;;572027;246;24104;-80
2023/08/25 10:18:06;;;;;;;10.83;5.83;;;25.10;99.90;24.60;99874;;;;576159;242;23111;-79
2023/08/25 10:20:31;;;;;;;6.10;5.50;;;25.10;99.90;24.70;99876;;;;570393;251;23143;-78
2023/08/25 10:22:59;;;;;;;5.87;5.00;;;25.10;99.90;24.70;99885;;;;570004;247;24206;-80
2023/08/25 10:25:30;;;;;;;13.93;9.50;;;25.10;99.90;24.80;99882;;;;566250;250;23127;-79
2023/08/25 10:28:02;;;;;;;5.93;5.20;;;25.20;99.90;24.90;99879;;;;564786;252;23158;-81
2023/08/25 10:30:30;;;;;;;5.30;4.80;;;25.40;99.90;25.10;99886;;;;566195;251;23282;-77
2023/08/25 10:33:06;;;;;;;7.90;5.10;;;25.50;99.90;25.20;99883;;;;561562;251;25238;-78
2023/08/25 10:35:46;;;;;;;15.43;5.73;;;25.70;99.90;25.40;99887;;;;568001;251;24262;-80
2023/08/25 10:38:20;;;;;;;13.53;8.10;;;25.90;99.90;25.60;99881;;;;572287;246;24140;-78
2023/08/25 10:40:54;;;;;;;8.17;5.17;;;26.10;99.90;25.60;99883;;;;561696;251;23168;-78
2023/08/25 10:43:25;;;;;;;15.17;7.70;;;26.10;99.90;25.70;99881;;;;580646;246;23155;-77
2023/08/25 10:45:53;;;;;;;5.43;4.87;;;26.20;99.90;25.80;99884;;;;560796;251;23153;-77
2023/08/25 10:48:21;;;;;;;12.57;6.03;;;26.20;99.90;25.70;99884;;;;559038;251;23424;-77
2023/08/25 10:50:49;;;;;;;10.47;6.57;;;26.20;99.90;25.70;99882;;;;559651;252;23185;-77
2023/08/25 10:53:38;;;;;;;10.43;5.37;;;26.20;99.90;25.70;99889;;;;578466;247;23117;-78
2023/08/25 10:56:20;;;;;;;17.30;6.70;;;26.20;99.90;25.90;99886;;;;570011;248;23152;-82
2023/08/25 10:59:08;;;;;;;7.50;5.93;;;26.30;99.90;25.90;99880;;;;578778;248;23130;-85
2023/08/25 11:01:39;;;;;;;9.37;6.53;;;26.30;99.90;26.10;99881;;;;565075;248;35334;-77
2023/08/25 11:04:15;;;;;;;11.97;6.17;;;26.50;99.90;26.20;99873;;;;579017;246;23114;-79
2023/08/25 11:06:50;;;;;;;7.30;5.70;;;26.60;99.90;26.40;99869;;;;570700;248;23148;-77
2023/08/25 11:09:21;;;;;;;15.70;6.07;;;27.10;99.90;26.70;99872;;;;570096;248;23123;-79
2023/08/25 11:11:50;;;;;;;11.37;6.53;;;27.10;99.90;27.00;99869;;;;579423;246;23209;-79
2023/08/25 11:14:18;;;;;;;13.00;6.60;;;27.40;99.90;27.20;99870;;;;580284;247;23104;-80
2023/08/25 11:16:48;;;;;;;8.18;6.05;;;27.70;99.90;27.50;99869;;;;571439;247;23084;-81
2023/08/25 11:19:15;;;;;;;14.75;6.53;;;28.10;99.90;27.70;99872;;;;575708;247;24154;-77